createdAt,value
2022-10-29T00:02:26.189Z,98987.88
2022-10-29T00:05:31.947Z,98977.38
2022-10-29T00:08:40.560Z,98978.25
2022-10-29T00:11:46.281Z,98978.09
2022-10-29T00:14:55.537Z,98977.00
2022-10-29T00:18:03.515Z,98978.75
2022-10-29T00:21:13.782Z,98980.47
2022-10-29T00:24:19.380Z,98981.34
2022-10-29T00:27:26.367Z,98985.63
2022-10-29T00:30:34.749Z,98977.09
2022-10-29T00:33:41.286Z,98977.31
2022-10-29T00:36:46.897Z,98977.31
2022-10-29T00:39:53.900Z,98981.72
2022-10-29T00:43:17.193Z,98963.19
2022-10-29T00:46:34.342Z,98972.69
2022-10-29T00:49:41.923Z,98968.44
2022-10-29T00:52:50.816Z,98969.34
2022-10-29T00:55:56.434Z,98966.72
2022-10-29T00:59:03.725Z,98963.19
2022-10-29T01:02:13.312Z,98959.69
2022-10-29T01:05:23.455Z,98958.94
2022-10-29T01:08:29.281Z,98951.13
2022-10-29T01:11:47.246Z,98943.94
2022-10-29T01:15:08.297Z,98944.84
2022-10-29T01:18:25.696Z,98954.38
2022-10-29T01:21:46.250Z,98947.72
2022-10-29T01:25:09.906Z,98943.53
2022-10-29T01:28:28.185Z,98942.78
2022-10-29T01:31:41.750Z,98946.34
2022-10-29T01:34:55.680Z,98934.13
2022-10-29T01:38:13.286Z,98931.34
2022-10-29T01:41:26.565Z,98930.25
2022-10-29T01:44:40.035Z,98931.97
2022-10-29T01:47:54.600Z,98929.34
2022-10-29T01:51:03.619Z,98934.66
2022-10-29T01:54:14.270Z,98939.25
2022-10-29T01:57:34.488Z,98941.09
2022-10-29T02:00:53.122Z,98939.25
2022-10-29T02:04:07.730Z,98932.28
2022-10-29T02:07:23.947Z,98929.59
2022-10-29T02:10:34.199Z,98918.22
2022-10-29T02:13:47.809Z,98921.63
2022-10-29T02:16:56.444Z,98916.66
2022-10-29T02:20:07.439Z,98921.63
2022-10-29T02:23:13.438Z,98909.41
2022-10-29T02:26:21.947Z,98909.41
2022-10-29T02:29:27.592Z,98911.22
2022-10-29T02:32:34.800Z,98883.78
2022-10-29T02:35:43.167Z,98916.38
2022-10-29T02:38:49.598Z,98908.63
2022-10-29T02:41:55.407Z,98915.75
2022-10-29T02:45:03.285Z,98906.16
2022-10-29T02:48:09.532Z,98905.34
2022-10-29T02:51:19.738Z,98916.66
2022-10-29T02:54:25.631Z,98912.22
2022-10-29T02:57:32.063Z,98921.72
2022-10-29T03:00:37.675Z,98904.00
2022-10-29T03:03:44.812Z,98915.91
2022-10-29T03:06:53.218Z,98904.22
2022-10-29T03:09:59.971Z,98897.78
2022-10-29T03:13:07.860Z,98893.34
2022-10-29T03:16:14.360Z,98886.97
2022-10-29T03:19:20.021Z,98899.19
2022-10-29T03:22:29.328Z,98912.69
2022-10-29T03:25:34.946Z,98902.59
2022-10-29T03:31:49.916Z,98908.09
2022-10-29T03:34:59.825Z,98924.84
2022-10-29T03:38:11.199Z,98923.34
2022-10-29T03:41:18.608Z,98923.38
2022-10-29T03:44:24.221Z,98934.75
2022-10-29T03:47:31.052Z,98928.44
2022-10-29T03:50:36.920Z,98934.50
2022-10-29T03:53:46.446Z,98919.59
2022-10-29T03:56:52.096Z,98918.84
2022-10-29T03:59:59.144Z,98912.72
2022-10-29T04:03:07.368Z,98914.50
2022-10-29T04:06:15.982Z,98914.91
2022-10-29T04:09:24.439Z,98903.63
2022-10-29T04:12:30.895Z,98914.28
2022-10-29T04:15:36.516Z,98917.16
2022-10-29T04:18:43.031Z,98912.81
2022-10-29T04:28:44.360Z,98912.13
2022-10-29T04:31:51.143Z,98912.97
2022-10-29T04:34:57.037Z,98921.63
2022-10-29T04:38:10.426Z,98921.63
2022-10-29T04:41:19.077Z,98895.25
2022-10-29T04:44:26.135Z,98871.28
2022-10-29T04:47:31.803Z,98881.31
2022-10-29T04:50:40.774Z,98877.59
2022-10-29T04:53:46.620Z,98897.06
2022-10-29T04:56:56.167Z,98890.09
2022-10-29T05:00:03.347Z,98890.88
2022-10-29T05:03:09.922Z,98904.09
2022-10-29T05:06:15.551Z,98911.97
2022-10-29T05:09:22.315Z,98891.03
2022-10-29T05:12:30.726Z,98903.34
2022-10-29T05:15:37.540Z,98917.47
2022-10-29T05:18:43.408Z,98904.34
2022-10-29T05:21:49.887Z,98912.88
2022-10-29T05:24:55.520Z,98911.25
2022-10-29T05:28:10.515Z,98903.34
2022-10-29T05:31:16.143Z,98909.41
2022-10-29T05:34:22.974Z,98893.66
2022-10-29T05:37:28.565Z,98898.75
2022-10-29T05:40:35.630Z,98901.06
2022-10-29T05:43:44.310Z,98897.34
2022-10-29T05:46:51.835Z,98898.28
2022-10-29T05:49:57.408Z,98903.53
2022-10-29T05:53:06.239Z,98917.53
2022-10-29T05:56:12.100Z,98907.19
2022-10-29T05:59:21.342Z,98914.81
2022-10-29T06:02:27.343Z,98917.28
2022-10-29T06:05:34.150Z,98906.94
2022-10-29T06:08:39.871Z,98916.53
2022-10-29T06:11:46.328Z,98932.28
2022-10-29T06:14:54.699Z,98933.97
2022-10-29T06:18:01.210Z,98936.59
2022-10-29T06:21:08.877Z,98939.97
2022-10-29T06:24:15.403Z,98948.81
2022-10-29T06:27:21.034Z,98949.56
2022-10-29T06:30:33.611Z,98959.00
2022-10-29T06:33:39.223Z,98957.75
2022-10-29T06:36:46.324Z,98954.28
2022-10-29T06:39:51.919Z,98957.00
2022-10-29T06:43:03.547Z,98958.38
2022-10-29T06:46:12.075Z,98947.00
2022-10-29T06:49:18.495Z,98957.88
2022-10-29T06:52:24.357Z,98947.06
2022-10-29T06:55:31.586Z,98953.81
2022-10-29T06:58:37.303Z,98958.16
2022-10-29T07:01:46.863Z,98966.66
2022-10-29T07:04:52.914Z,98963.88
2022-10-29T07:07:59.761Z,98973.22
2022-10-29T07:11:07.972Z,98970.19
2022-10-29T07:14:14.463Z,98994.44
2022-10-29T07:17:22.915Z,98986.25
2022-10-29T07:20:29.872Z,98996.81
2022-10-29T07:23:38.452Z,98996.91
2022-10-29T07:26:44.879Z,99003.09
2022-10-29T07:29:50.514Z,98997.84
2022-10-29T07:32:59.783Z,98992.41
2022-10-29T07:36:07.160Z,98998.38
2022-10-29T07:39:13.611Z,99001.81
2022-10-29T07:42:19.978Z,99002.69
2022-10-29T07:45:26.500Z,99010.25
2022-10-29T07:48:35.169Z,98999.25
2022-10-29T07:51:41.934Z,99003.34
2022-10-29T07:54:47.527Z,99013.88
2022-10-29T07:58:03.539Z,99011.84
2022-10-29T08:01:09.733Z,99004.47
2022-10-29T08:04:19.844Z,99011.19
2022-10-29T08:07:25.432Z,99019.50
2022-10-29T08:10:33.260Z,99024.25
2022-10-29T08:13:38.944Z,99018.41
2022-10-29T08:16:45.444Z,99017.78
2022-10-29T08:19:53.870Z,99013.88
2022-10-29T08:23:03.524Z,99021.34
2022-10-29T08:26:09.382Z,99012.81
2022-10-29T08:29:15.845Z,99029.03
2022-10-29T08:32:21.777Z,99019.66
2022-10-29T08:35:31.345Z,99028.59
2022-10-29T08:38:37.062Z,99022.63
2022-10-29T08:41:55.889Z,99016.88
2022-10-29T08:45:19.625Z,99021.69
2022-10-29T08:48:38.410Z,99017.19
2022-10-29T08:51:50.719Z,99002.53
2022-10-29T08:55:06.980Z,99016.09
2022-10-29T08:58:30.076Z,99008.81
2022-10-29T09:01:37.258Z,99011.38
2022-10-29T09:04:43.209Z,99007.00
2022-10-29T09:08:19.081Z,99003.38
2022-10-29T09:11:38.381Z,99012.41
2022-10-29T09:15:03.749Z,99006.53
2022-10-29T09:18:27.426Z,99009.72
2022-10-29T09:21:41.308Z,99019.59
2022-10-29T09:24:59.040Z,99012.72
2022-10-29T09:28:21.855Z,99028.19
2022-10-29T09:31:33.429Z,99018.47
2022-10-29T09:34:46.302Z,99016.00
2022-10-29T09:37:56.641Z,99013.47
2022-10-29T09:41:07.840Z,99011.78
2022-10-29T09:44:23.882Z,99011.84
2022-10-29T09:47:42.157Z,99004.19
2022-10-29T09:50:57.192Z,99006.09
2022-10-29T09:54:03.873Z,98994.25
2022-10-29T09:57:22.576Z,98988.94
2022-10-29T10:00:31.871Z,98979.88
2022-10-29T10:03:43.015Z,98980.38
2022-10-29T10:07:07.911Z,98977.00
2022-10-29T10:10:25.349Z,98984.31
2022-10-29T10:13:37.105Z,98990.66
2022-10-29T10:16:42.772Z,98973.72
2022-10-29T10:19:49.893Z,98972.44
2022-10-29T10:22:55.864Z,98969.28
2022-10-29T10:26:04.354Z,98977.00
2022-10-29T10:29:18.843Z,98972.53
2022-10-29T10:32:28.914Z,98962.69
2022-10-29T10:35:35.079Z,98964.19
2022-10-29T10:38:44.901Z,98951.66
2022-10-29T10:41:53.692Z,98956.00
2022-10-29T10:45:06.230Z,98962.22
2022-10-29T10:48:14.141Z,98948.03
2022-10-29T10:51:27.835Z,98950.81
2022-10-29T10:54:38.071Z,98946.97
2022-10-29T10:57:51.750Z,98960.94
2022-10-29T11:01:06.655Z,98950.13
2022-10-29T11:04:20.754Z,98943.97
2022-10-29T11:07:31.404Z,98939.78
2022-10-29T11:10:43.048Z,98933.69
2022-10-29T11:13:49.383Z,98948.66
2022-10-29T11:17:03.568Z,98937.31
2022-10-29T11:20:18.038Z,98926.94
2022-10-29T11:23:35.325Z,98928.88
2022-10-29T11:26:46.464Z,98928.00
2022-10-29T11:29:58.973Z,98933.63
2022-10-29T11:33:20.183Z,98930.97
2022-10-29T11:36:29.702Z,98928.31
2022-10-29T11:39:41.943Z,98932.56
2022-10-29T11:42:50.723Z,98934.59
2022-10-29T11:46:03.530Z,98924.44
2022-10-29T11:49:30.075Z,98929.69
2022-10-29T11:52:43.505Z,98924.88
2022-10-29T11:55:59.625Z,98923.72
2022-10-29T11:59:13.600Z,98922.88
2022-10-29T12:02:34.813Z,98932.41
2022-10-29T12:05:47.324Z,98920.22
2022-10-29T12:09:06.335Z,98909.97
2022-10-29T12:12:17.541Z,98900.66
2022-10-29T12:15:29.538Z,98913.19
2022-10-29T12:18:43.406Z,98906.41
2022-10-29T12:21:58.618Z,98903.03
2022-10-29T12:25:23.051Z,98901.31
2022-10-29T12:28:39.200Z,98896.28
2022-10-29T12:31:56.124Z,98901.59
2022-10-29T12:35:07.388Z,98904.75
2022-10-29T12:38:33.406Z,98891.78
2022-10-29T12:41:44.454Z,98888.78
2022-10-29T12:45:06.490Z,98892.78
2022-10-29T12:48:19.429Z,98896.38
2022-10-29T12:51:31.027Z,98905.25
2022-10-29T12:54:44.048Z,98898.06
2022-10-29T12:57:49.714Z,98901.22
2022-10-29T13:00:56.242Z,98898.09
2022-10-29T13:04:03.587Z,98896.19
2022-10-29T13:07:26.447Z,98887.16
2022-10-29T13:10:55.065Z,98894.78
2022-10-29T13:14:04.641Z,98892.22
2022-10-29T13:17:27.298Z,98887.53
2022-10-29T13:20:40.326Z,98889.25
2022-10-29T13:24:07.870Z,98882.72
2022-10-29T13:27:39.308Z,98877.66
2022-10-29T13:30:46.899Z,98880.31
2022-10-29T13:33:54.545Z,98884.44
2022-10-29T13:37:33.483Z,98885.16
2022-10-29T13:41:15.117Z,98882.38
2022-10-29T13:44:25.894Z,98877.31
2022-10-29T13:47:33.157Z,98876.47
2022-10-29T13:50:41.641Z,98865.03
2022-10-29T13:53:55.909Z,98867.81
2022-10-29T13:57:04.155Z,98861.03
2022-10-29T14:00:21.243Z,98856.19
2022-10-29T14:03:36.698Z,98855.59
2022-10-29T14:06:43.423Z,98854.03
2022-10-29T14:09:52.378Z,98853.53
2022-10-29T14:13:03.880Z,98843.38
2022-10-29T14:16:15.710Z,98853.47
2022-10-29T14:19:24.630Z,98858.72
2022-10-29T14:22:41.191Z,98861.44
2022-10-29T14:25:53.421Z,98855.13
2022-10-29T14:28:59.320Z,98869.16
2022-10-29T14:32:18.792Z,98865.91
2022-10-29T14:35:24.541Z,98860.31
2022-10-29T14:38:40.100Z,98859.78
2022-10-29T14:41:47.633Z,98858.16
2022-10-29T14:44:57.530Z,98858.41
2022-10-29T14:48:15.616Z,98869.09
2022-10-29T14:51:24.708Z,98867.31
2022-10-29T14:54:33.949Z,98875.88
2022-10-29T14:57:46.852Z,98881.00
2022-10-29T15:00:58.955Z,98879.94
2022-10-29T15:04:22.104Z,98881.44
2022-10-29T15:07:34.463Z,98882.88
2022-10-29T15:10:51.824Z,98867.44
2022-10-29T15:13:58.105Z,98876.00
2022-10-29T15:17:14.868Z,98871.50
2022-10-29T15:20:27.538Z,98876.03
2022-10-29T15:23:38.344Z,98873.88
2022-10-29T15:26:50.890Z,98868.44
2022-10-29T15:29:57.824Z,98867.88
2022-10-29T15:33:08.376Z,98870.63
2022-10-29T15:36:17.855Z,98867.31
2022-10-29T15:39:27.056Z,98875.44
2022-10-29T15:42:35.417Z,98876.13
2022-10-29T15:45:46.179Z,98867.09
2022-10-29T15:48:52.649Z,98872.78
2022-10-29T15:52:03.281Z,98866.84
2022-10-29T15:55:16.218Z,98863.47
2022-10-29T15:58:24.994Z,98854.59
2022-10-29T16:01:32.527Z,98858.19
2022-10-29T16:04:38.151Z,98849.91
2022-10-29T16:07:49.982Z,98849.34
2022-10-29T16:10:56.755Z,98855.97
2022-10-29T16:14:03.524Z,98867.06
2022-10-29T16:17:15.524Z,98865.09
2022-10-29T16:20:22.996Z,98864.81
2022-10-29T16:23:31.797Z,98863.50
2022-10-29T16:26:38.240Z,98860.31
2022-10-29T16:29:43.951Z,98862.16
2022-10-29T16:32:52.921Z,98861.84
2022-10-29T16:35:58.535Z,98875.13
2022-10-29T16:39:09.874Z,98872.09
2022-10-29T16:42:31.477Z,98872.47
2022-10-29T16:45:38.486Z,98873.38
2022-10-29T16:48:45.766Z,98878.09
2022-10-29T16:51:52.252Z,98873.84
2022-10-29T16:55:01.014Z,98864.28
2022-10-29T16:58:14.484Z,98874.69
2022-10-29T17:01:22.799Z,98883.53
2022-10-29T17:04:29.373Z,98889.75
2022-10-29T17:07:35.329Z,98874.88
2022-10-29T17:10:44.611Z,98869.44
2022-10-29T17:13:50.184Z,98873.94
2022-10-29T17:16:57.410Z,98874.13
2022-10-29T17:20:03.583Z,98862.84
2022-10-29T17:23:10.274Z,98860.84
2022-10-29T17:26:18.842Z,98863.59
2022-10-29T17:29:25.733Z,98866.69
2022-10-29T17:32:32.809Z,98861.88
2022-10-29T17:35:39.353Z,98862.03
2022-10-29T17:38:45.889Z,98863.94
2022-10-29T17:41:55.514Z,98862.38
2022-10-29T17:45:01.144Z,98874.22
2022-10-29T17:48:09.780Z,98873.81
2022-10-29T17:51:15.714Z,98879.06
2022-10-29T17:54:22.278Z,98868.53
2022-10-29T17:57:31.161Z,98863.66
2022-10-29T18:00:37.669Z,98867.53
2022-10-29T18:03:43.328Z,98879.34
2022-10-29T18:06:50.090Z,98866.53
2022-10-29T18:09:55.863Z,98881.75
2022-10-29T18:13:06.553Z,98873.25
2022-10-29T18:16:13.117Z,98880.53
2022-10-29T18:19:19.631Z,98873.75
2022-10-29T18:22:25.309Z,98867.72
2022-10-29T18:25:31.954Z,98865.00
2022-10-29T18:28:40.348Z,98866.72
2022-10-29T18:31:47.424Z,98872.97
2022-10-29T18:34:53.082Z,98867.72
2022-10-29T18:38:00.094Z,98876.56
2022-10-29T18:41:08.349Z,98868.91
2022-10-29T18:44:17.629Z,98871.78
2022-10-29T18:47:23.272Z,98875.38
2022-10-29T18:50:29.756Z,98869.94
2022-10-29T18:53:36.825Z,98864.69
2022-10-29T18:56:43.707Z,98858.41
2022-10-29T18:59:52.349Z,98851.94
2022-10-29T19:02:59.247Z,98846.50
2022-10-29T19:06:09.985Z,98843.13
2022-10-29T19:09:16.576Z,98844.81
2022-10-29T19:12:22.216Z,98843.13
2022-10-29T19:15:31.510Z,98848.81
2022-10-29T19:18:37.693Z,98843.81
2022-10-29T19:21:44.771Z,98847.38
2022-10-29T19:24:50.349Z,98847.53
2022-10-29T19:27:56.885Z,98846.66
2022-10-29T19:31:10.343Z,98849.41
2022-10-29T19:34:16.865Z,98852.19
2022-10-29T19:37:22.454Z,98858.41
2022-10-29T19:40:30.171Z,98848.72
2022-10-29T19:43:36.159Z,98856.53
2022-10-29T19:46:46.134Z,98859.59
2022-10-29T19:49:51.695Z,98862.06
2022-10-29T19:52:58.566Z,98867.38
2022-10-29T19:56:06.567Z,98861.09
2022-10-29T19:59:13.084Z,98856.53
2022-10-29T20:02:21.793Z,98855.34
2022-10-29T20:05:28.563Z,98845.47
2022-10-29T20:08:34.180Z,98854.16
2022-10-29T20:11:40.638Z,98850.75
2022-10-29T20:14:46.793Z,98847.09
2022-10-29T20:17:57.473Z,98857.81
2022-10-29T20:24:10.345Z,98868.72
2022-10-29T20:27:16.229Z,98871.34
2022-10-29T20:30:22.871Z,98876.38
2022-10-29T20:33:31.227Z,98858.31
2022-10-29T20:36:37.990Z,98869.41
2022-10-29T20:39:43.951Z,98861.53
2022-10-29T20:42:52.554Z,98865.50
2022-10-29T20:46:03.568Z,98868.84
2022-10-29T20:49:12.864Z,98872.16
2022-10-29T20:52:18.774Z,98873.09
2022-10-29T20:55:25.547Z,98876.41
2022-10-29T20:58:31.429Z,98878.09
2022-10-29T21:01:38.186Z,98866.72
2022-10-29T21:04:46.679Z,98864.88
2022-10-29T21:07:53.141Z,98855.00
2022-10-29T21:11:03.843Z,98855.69
2022-10-29T21:14:10.403Z,98853.97
2022-10-29T21:17:16.004Z,98843.44
2022-10-29T21:20:25.466Z,98849.88
2022-10-29T21:23:31.570Z,98849.72
2022-10-29T21:26:38.056Z,98850.50
2022-10-29T21:29:43.789Z,98839.88
2022-10-29T21:32:50.183Z,98838.66
2022-10-29T21:35:59.652Z,98850.53
2022-10-29T21:39:07.679Z,98845.94
2022-10-29T21:42:13.301Z,98823.00
2022-10-29T21:45:20.027Z,98820.25
2022-10-29T21:48:28.196Z,98799.22
2022-10-29T21:51:37.456Z,98793.03
2022-10-29T21:54:43.099Z,98799.22
2022-10-29T21:57:49.634Z,98803.53
2022-10-29T22:00:55.306Z,98807.22
2022-10-29T22:04:03.565Z,98806.53
2022-10-29T22:07:12.453Z,98805.97
2022-10-29T22:10:19.224Z,98811.50
2022-10-29T22:13:25.122Z,98816.75
2022-10-29T22:16:31.655Z,98814.41
2022-10-29T22:19:37.278Z,98814.75
2022-10-29T22:22:46.743Z,98805.69
2022-10-29T22:25:53.994Z,98805.13
2022-10-29T22:29:01.200Z,98799.44
2022-10-29T22:32:09.047Z,98798.69
2022-10-29T22:35:15.483Z,98798.81
2022-10-29T22:38:24.491Z,98790.19
2022-10-29T22:41:32.033Z,98788.66
2022-10-29T22:44:37.841Z,98786.13
2022-10-29T22:47:44.600Z,98785.09
2022-10-29T22:50:50.208Z,98780.59
2022-10-29T22:54:00.390Z,98786.81
2022-10-29T22:57:08.312Z,98782.91
2022-10-29T23:00:16.181Z,98787.66
2022-10-29T23:03:21.801Z,98781.03
2022-10-29T23:06:29.251Z,98778.69
2022-10-29T23:09:37.665Z,98795.63
2022-10-29T23:12:44.267Z,98795.22
2022-10-29T23:15:50.616Z,98791.13
2022-10-29T23:18:59.964Z,98783.63
2022-10-29T23:22:07.973Z,98779.19
2022-10-29T23:25:17.263Z,98785.22
2022-10-29T23:28:22.941Z,98786.31
2022-10-29T23:31:31.279Z,98777.66
2022-10-29T23:34:36.868Z,98771.50
2022-10-29T23:37:43.478Z,98760.03
2022-10-29T23:40:51.983Z,98745.97
2022-10-29T23:43:58.942Z,98751.06
2022-10-29T23:47:07.037Z,98756.31
2022-10-29T23:50:13.725Z,98758.00
2022-10-29T23:53:19.610Z,98759.88
2022-10-29T23:56:29.461Z,98763.78
2022-10-29T23:59:35.095Z,98767.56
